Time,TemperatureF,DewpointF,PressureIn,WindDirection,WindDirectionDegrees,WindSpeedMPH,WindSpeedGustMPH,Humidity,HourlyPrecipIn,Conditions,Clouds,dailyrainin,SolarRadiationWatts/m^2,SoftwareType,DateUTC
2013-10-11 00:00:00,37.0,32.0,-100.00,WNW,299,7.0,18.0,81,0.00,,,0.05,0.000000,,2013-10-11 07:00:00,
2013-10-11 00:42:00,37.0,32.0,-100.00,WNW,299,7.0,18.0,81,0.00,,,0.05,0.000000,,2013-10-11 07:42:00,
2013-10-11 00:52:00,37.0,32.0,-100.00,WNW,299,7.0,18.0,81,0.00,,,0.05,0.000000,,2013-10-11 07:52:00,
2013-10-11 01:00:00,35.0,31.0,-100.00,NNW,329,6.0,14.0,84,0.00,,,0.05,0.000000,,2013-10-11 08:00:00,
2013-10-11 01:22:00,35.0,31.0,-100.00,NNW,329,6.0,14.0,84,0.00,,,0.05,0.000000,,2013-10-11 08:22:00,
2013-10-11 01:32:00,35.0,31.0,-100.00,NNW,329,6.0,14.0,84,0.00,,,0.05,0.000000,,2013-10-11 08:32:00,
2013-10-11 01:42:00,35.0,31.0,-100.00,NNW,329,6.0,14.0,84,0.00,,,0.05,0.000000,,2013-10-11 08:42:00,
2013-10-11 01:52:00,35.0,31.0,-100.00,NNW,329,6.0,14.0,84,0.00,,,0.05,0.000000,,2013-10-11 08:52:00,
2013-10-11 02:00:00,34.0,31.0,-100.00,NW,324,6.0,13.0,87,0.00,,,0.05,0.000000,,2013-10-11 09:00:00,
2013-10-11 02:22:00,34.0,31.0,-100.00,NW,324,6.0,13.0,87,0.00,,,0.05,0.000000,,2013-10-11 09:22:00,
2013-10-11 02:33:00,34.0,31.0,-100.00,NW,324,6.0,13.0,87,0.00,,,0.05,0.000000,,2013-10-11 09:33:00,
2013-10-11 02:43:00,34.0,31.0,-100.00,NW,324,6.0,13.0,87,0.00,,,0.05,0.000000,,2013-10-11 09:43:00,
2013-10-11 02:54:00,34.0,31.0,-100.00,NW,324,6.0,13.0,87,0.00,,,0.05,0.000000,,2013-10-11 09:54:00,
2013-10-11 03:00:00,33.0,31.0,-100.00,North,7,7.0,11.0,93,0.00,,,0.05,0.000000,,2013-10-11 10:00:00,
2013-10-11 03:42:00,33.0,31.0,-100.00,North,7,7.0,11.0,93,0.00,,,0.05,0.000000,,2013-10-11 10:42:00,
2013-10-11 03:53:00,33.0,31.0,-100.00,North,7,7.0,11.0,93,0.00,,,0.05,0.000000,,2013-10-11 10:53:00,
2013-10-11 04:00:00,35.0,33.0,-100.00,NNW,328,8.0,14.0,93,0.00,,,-99.99,0.000000,,2013-10-11 11:00:00,
2013-10-11 04:42:00,35.0,33.0,-100.00,NNW,328,8.0,14.0,93,0.00,,,-99.99,0.000000,,2013-10-11 11:42:00,
2013-10-11 04:52:00,35.0,33.0,-100.00,NNW,328,8.0,14.0,93,0.00,,,-99.99,0.000000,,2013-10-11 11:52:00,
2013-10-11 05:00:00,33.0,31.0,-100.00,NNW,331,7.0,15.0,94,0.00,,,-99.99,0.000000,,2013-10-11 12:00:00,
2013-10-11 05:42:00,33.0,31.0,-100.00,NNW,331,7.0,15.0,94,0.00,,,-99.99,0.000000,,2013-10-11 12:42:00,
2013-10-11 05:52:00,33.0,31.0,-100.00,NNW,331,7.0,15.0,94,0.00,,,-99.99,0.000000,,2013-10-11 12:52:00,
2013-10-11 06:00:00,34.0,32.0,-100.00,NNW,339,4.0,12.0,91,0.00,,,-99.99,0.000000,,2013-10-11 13:00:00,
2013-10-11 06:43:00,34.0,32.0,-100.00,NNW,339,4.0,12.0,91,0.00,,,-99.99,0.000000,,2013-10-11 13:43:00,
2013-10-11 06:53:00,34.0,32.0,-100.00,NNW,339,4.0,12.0,91,0.00,,,-99.99,0.000000,,2013-10-11 13:53:00,
2013-10-11 07:00:00,32.0,30.0,-100.00,NE,39,4.0,10.0,93,0.00,,,0.05,1.000000,,2013-10-11 14:00:00,
2013-10-11 07:42:00,32.0,30.0,-100.00,NE,39,4.0,10.0,93,0.00,,,0.05,1.000000,,2013-10-11 14:42:00,
2013-10-11 07:52:00,32.0,30.0,-100.00,NE,39,4.0,10.0,93,0.00,,,0.05,1.000000,,2013-10-11 14:52:00,
2013-10-11 08:00:00,37.0,34.0,-100.00,North,357,2.0,7.0,88,0.00,,,-99.99,22.000000,,2013-10-11 15:00:00,
2013-10-11 08:44:00,37.0,34.0,-100.00,North,357,2.0,7.0,88,0.00,,,-99.99,22.000000,,2013-10-11 15:44:00,
2013-10-11 08:54:00,37.0,34.0,-100.00,North,357,2.0,7.0,88,0.00,,,-99.99,22.000000,,2013-10-11 15:54:00,
2013-10-11 09:00:00,44.0,33.0,-100.00,NNW,333,3.0,7.0,66,0.00,,,0.01,267.000000,,2013-10-11 16:00:00,
2013-10-11 09:43:00,44.0,33.0,-100.00,NNW,333,3.0,7.0,66,0.00,,,0.01,267.000000,,2013-10-11 16:43:00,
2013-10-11 09:53:00,44.0,33.0,-100.00,NNW,333,3.0,7.0,66,0.00,,,0.01,267.000000,,2013-10-11 16:53:00,
2013-10-11 10:00:00,50.0,34.0,-100.00,West,278,2.0,9.0,54,0.00,,,0.00,599.000000,,2013-10-11 17:00:00,
2013-10-11 10:43:00,50.0,34.0,-100.00,West,278,2.0,9.0,54,0.00,,,0.00,599.000000,,2013-10-11 17:43:00,
2013-10-11 10:53:00,50.0,34.0,-100.00,West,278,2.0,9.0,54,0.00,,,0.00,599.000000,,2013-10-11 17:53:00,
2013-10-11 11:00:00,52.0,34.0,-100.00,SSW,205,4.0,9.0,51,0.00,,,0.00,804.000000,,2013-10-11 18:00:00,
2013-10-11 11:43:00,52.0,34.0,-100.00,SSW,205,4.0,9.0,51,0.00,,,0.00,804.000000,,2013-10-11 18:43:00,
2013-10-11 11:52:00,52.0,34.0,-100.00,SSW,205,4.0,9.0,51,0.00,,,0.00,804.000000,,2013-10-11 18:52:00,
2013-10-11 12:00:00,53.0,37.0,-100.00,South,188,4.0,9.0,54,0.00,,,0.00,1045.000000,,2013-10-11 19:00:00,
2013-10-11 12:22:00,53.0,37.0,-100.00,South,188,4.0,9.0,54,0.00,,,0.00,1045.000000,,2013-10-11 19:22:00,
2013-10-11 12:33:00,53.0,37.0,-100.00,South,188,4.0,9.0,54,0.00,,,0.00,1045.000000,,2013-10-11 19:33:00,
2013-10-11 12:43:00,53.0,37.0,-100.00,South,188,4.0,9.0,54,0.00,,,0.00,1045.000000,,2013-10-11 19:43:00,
2013-10-11 12:52:00,53.0,37.0,-100.00,South,188,4.0,9.0,54,0.00,,,0.00,1045.000000,,2013-10-11 19:52:00,
2013-10-11 13:00:00,50.0,33.0,-100.00,WSW,245,3.0,8.0,51,0.00,,,0.00,612.000000,,2013-10-11 20:00:00,
2013-10-11 13:43:00,50.0,33.0,-100.00,WSW,245,3.0,8.0,51,0.00,,,0.00,612.000000,,2013-10-11 20:43:00,
2013-10-11 13:53:00,50.0,33.0,-100.00,WSW,245,3.0,8.0,51,0.00,,,0.00,612.000000,,2013-10-11 20:53:00,
2013-10-11 14:00:00,51.0,31.0,-100.00,ENE,75,2.0,7.0,47,0.00,,,0.00,342.000000,,2013-10-11 21:00:00,
2013-10-11 14:43:00,51.0,31.0,-100.00,ENE,75,2.0,7.0,47,0.00,,,0.00,342.000000,,2013-10-11 21:43:00,
2013-10-11 14:55:00,51.0,31.0,-100.00,ENE,75,2.0,7.0,47,0.00,,,0.00,342.000000,,2013-10-11 21:55:00,
2013-10-11 15:00:00,50.0,30.0,-100.00,West,276,2.0,7.0,46,0.00,,,0.00,332.000000,,2013-10-11 22:00:00,
2013-10-11 15:24:00,50.0,30.0,-100.00,West,276,2.0,7.0,46,0.00,,,0.00,332.000000,,2013-10-11 22:24:00,
2013-10-11 15:33:00,50.0,30.0,-100.00,West,276,2.0,7.0,46,0.00,,,0.00,332.000000,,2013-10-11 22:33:00,
2013-10-11 15:43:00,50.0,30.0,-100.00,West,276,2.0,7.0,46,0.00,,,0.00,332.000000,,2013-10-11 22:43:00,
2013-10-11 15:54:00,50.0,30.0,-100.00,West,276,2.0,7.0,46,0.00,,,0.00,332.000000,,2013-10-11 22:54:00,
2013-10-11 16:00:00,53.0,29.0,-100.00,WSW,240,3.0,9.0,40,0.00,,,0.00,311.000000,,2013-10-11 23:00:00,
2013-10-11 16:42:00,53.0,29.0,-100.00,WSW,240,3.0,9.0,40,0.00,,,0.00,311.000000,,2013-10-11 23:42:00,
2013-10-11 16:53:00,53.0,29.0,-100.00,WSW,240,3.0,9.0,40,0.00,,,0.00,311.000000,,2013-10-11 23:53:00,
2013-10-11 17:00:00,52.0,25.0,-100.00,West,266,4.0,11.0,35,0.00,,,0.00,375.000000,,2013-10-12 00:00:00,
2013-10-11 17:22:00,52.0,25.0,-100.00,West,266,4.0,11.0,35,0.00,,,0.00,375.000000,,2013-10-12 00:22:00,
2013-10-11 17:32:00,52.0,25.0,-100.00,West,266,4.0,11.0,35,0.00,,,0.00,375.000000,,2013-10-12 00:32:00,
2013-10-11 17:42:00,52.0,25.0,-100.00,West,266,4.0,11.0,35,0.00,,,0.00,375.000000,,2013-10-12 00:42:00,
2013-10-11 17:53:00,52.0,25.0,-100.00,West,266,4.0,11.0,35,0.00,,,0.00,375.000000,,2013-10-12 00:53:00,
2013-10-11 18:00:00,46.0,27.0,-100.00,WNW,297,3.0,9.0,48,0.00,,,0.00,132.000000,,2013-10-12 01:00:00,
2013-10-11 18:42:00,46.0,27.0,-100.00,WNW,297,3.0,9.0,48,0.00,,,0.00,132.000000,,2013-10-12 01:42:00,
2013-10-11 18:52:00,46.0,27.0,-100.00,WNW,297,3.0,9.0,48,0.00,,,0.00,132.000000,,2013-10-12 01:52:00,
2013-10-11 19:00:00,43.0,30.0,-100.00,NW,313,4.0,7.0,60,0.00,,,0.00,4.000000,,2013-10-12 02:00:00,
2013-10-11 19:42:00,43.0,30.0,-100.00,NW,313,4.0,7.0,60,0.00,,,0.00,4.000000,,2013-10-12 02:42:00,
2013-10-11 19:52:00,43.0,30.0,-100.00,NW,313,4.0,7.0,60,0.00,,,0.00,4.000000,,2013-10-12 02:52:00,
2013-10-11 20:00:00,40.0,27.0,-100.00,NW,307,2.0,7.0,60,0.00,,,0.00,0.000000,,2013-10-12 03:00:00,
2013-10-11 20:44:00,40.0,27.0,-100.00,NW,307,2.0,7.0,60,0.00,,,0.00,0.000000,,2013-10-12 03:44:00,
2013-10-11 20:54:00,40.0,27.0,-100.00,NW,307,2.0,7.0,60,0.00,,,0.00,0.000000,,2013-10-12 03:54:00,
2013-10-11 21:00:00,40.0,27.0,-100.00,NNW,340,1.0,4.0,60,0.00,,,0.00,0.000000,,2013-10-12 04:00:00,
2013-10-11 21:44:00,40.0,27.0,-100.00,NNW,340,1.0,4.0,60,0.00,,,0.00,0.000000,,2013-10-12 04:44:00,
2013-10-11 21:54:00,40.0,27.0,-100.00,NNW,340,1.0,4.0,60,0.00,,,0.00,0.000000,,2013-10-12 04:54:00,
2013-10-11 22:00:00,38.0,27.0,-100.00,NNE,23,1.0,4.0,63,0.00,,,0.00,0.000000,,2013-10-12 05:00:00,
2013-10-11 22:43:00,38.0,27.0,-100.00,NNE,23,1.0,4.0,63,0.00,,,0.00,0.000000,,2013-10-12 05:43:00,
2013-10-11 22:52:00,38.0,27.0,-100.00,NNE,23,1.0,4.0,63,0.00,,,0.00,0.000000,,2013-10-12 05:52:00,
2013-10-11 23:00:00,37.0,26.0,-100.00,ENE,70,2.0,3.0,64,0.00,,,0.00,0.000000,,2013-10-12 06:00:00,
2013-10-11 23:42:00,37.0,26.0,-100.00,ENE,70,2.0,3.0,64,0.00,,,0.00,0.000000,,2013-10-12 06:42:00,
2013-10-11 23:52:00,37.0,26.0,-100.00,ENE,70,2.0,3.0,64,0.00,,,0.00,0.000000,,2013-10-12 06:52:00,